sensor_id;sensor_type;location;lat;lon;timestamp;P1;durP1;ratioP1;P2;durP2;ratioP2
41677;SDS011;27364;49.026;8.712;2022-11-20T00:00:07;28.58;;;20.48;;
41677;SDS011;27364;49.026;8.712;2022-11-20T00:02:33;30.85;;;21.33;;
41677;SDS011;27364;49.026;8.712;2022-11-20T00:04:59;28.92;;;20.45;;
41677;SDS011;27364;49.026;8.712;2022-11-20T00:07:24;27.77;;;20.35;;
41677;SDS011;27364;49.026;8.712;2022-11-20T00:09:50;29.92;;;20.08;;
41677;SDS011;27364;49.026;8.712;2022-11-20T00:12:15;33.33;;;19.88;;
41677;SDS011;27364;49.026;8.712;2022-11-20T00:14:41;27.30;;;21.45;;
41677;SDS011;27364;49.026;8.712;2022-11-20T00:17:06;28.70;;;20.23;;
41677;SDS011;27364;49.026;8.712;2022-11-20T00:19:32;30.58;;;20.92;;
41677;SDS011;27364;49.026;8.712;2022-11-20T00:21:57;28.50;;;20.67;;
41677;SDS011;27364;49.026;8.712;2022-11-20T00:24:23;30.63;;;19.55;;
41677;SDS011;27364;49.026;8.712;2022-11-20T00:26:48;25.88;;;19.55;;
41677;SDS011;27364;49.026;8.712;2022-11-20T00:29:14;26.48;;;18.67;;
41677;SDS011;27364;49.026;8.712;2022-11-20T00:31:39;26.35;;;19.75;;
41677;SDS011;27364;49.026;8.712;2022-11-20T00:34:05;27.52;;;20.20;;
41677;SDS011;27364;49.026;8.712;2022-11-20T00:36:32;27.63;;;20.42;;
41677;SDS011;27364;49.026;8.712;2022-11-20T00:38:58;29.55;;;20.05;;
41677;SDS011;27364;49.026;8.712;2022-11-20T00:41:25;26.73;;;20.40;;
41677;SDS011;27364;49.026;8.712;2022-11-20T00:43:52;32.28;;;21.55;;
41677;SDS011;27364;49.026;8.712;2022-11-20T00:46:20;28.10;;;21.83;;
41677;SDS011;27364;49.026;8.712;2022-11-20T00:48:47;30.20;;;21.48;;
41677;SDS011;27364;49.026;8.712;2022-11-20T00:51:13;27.90;;;21.02;;
41677;SDS011;27364;49.026;8.712;2022-11-20T00:53:40;32.45;;;21.23;;
41677;SDS011;27364;49.026;8.712;2022-11-20T00:56:07;26.55;;;20.20;;
41677;SDS011;27364;49.026;8.712;2022-11-20T00:58:36;32.88;;;22.67;;
41677;SDS011;27364;49.026;8.712;2022-11-20T01:01:07;31.23;;;22.23;;
41677;SDS011;27364;49.026;8.712;2022-11-20T01:03:36;29.45;;;22.17;;
41677;SDS011;27364;49.026;8.712;2022-11-20T01:06:06;30.92;;;21.33;;
41677;SDS011;27364;49.026;8.712;2022-11-20T01:08:35;31.20;;;20.80;;
41677;SDS011;27364;49.026;8.712;2022-11-20T01:11:01;29.75;;;22.05;;
41677;SDS011;27364;49.026;8.712;2022-11-20T01:13:32;31.80;;;21.30;;
41677;SDS011;27364;49.026;8.712;2022-11-20T01:18:34;35.03;;;22.30;;
41677;SDS011;27364;49.026;8.712;2022-11-20T01:21:02;31.33;;;22.20;;
41677;SDS011;27364;49.026;8.712;2022-11-20T01:25:55;28.40;;;20.73;;
41677;SDS011;27364;49.026;8.712;2022-11-20T01:28:21;29.27;;;21.48;;
41677;SDS011;27364;49.026;8.712;2022-11-20T01:30:46;29.23;;;22.33;;
41677;SDS011;27364;49.026;8.712;2022-11-20T01:33:12;27.00;;;20.88;;
41677;SDS011;27364;49.026;8.712;2022-11-20T01:35:37;26.00;;;20.50;;
41677;SDS011;27364;49.026;8.712;2022-11-20T01:38:03;27.65;;;21.60;;
41677;SDS011;27364;49.026;8.712;2022-11-20T01:40:28;26.70;;;21.10;;
41677;SDS011;27364;49.026;8.712;2022-11-20T01:43:09;27.88;;;21.48;;
41677;SDS011;27364;49.026;8.712;2022-11-20T01:48:21;25.60;;;18.20;;
41677;SDS011;27364;49.026;8.712;2022-11-20T01:50:48;24.90;;;16.77;;
41677;SDS011;27364;49.026;8.712;2022-11-20T01:53:17;21.83;;;16.73;;
41677;SDS011;27364;49.026;8.712;2022-11-20T01:55:51;19.77;;;16.02;;
41677;SDS011;27364;49.026;8.712;2022-11-20T01:58:21;21.27;;;16.25;;
41677;SDS011;27364;49.026;8.712;2022-11-20T02:00:51;19.23;;;15.05;;
41677;SDS011;27364;49.026;8.712;2022-11-20T02:03:17;21.80;;;15.48;;
41677;SDS011;27364;49.026;8.712;2022-11-20T02:08:28;18.70;;;14.85;;
41677;SDS011;27364;49.026;8.712;2022-11-20T02:10:55;20.23;;;15.05;;
41677;SDS011;27364;49.026;8.712;2022-11-20T02:13:20;19.77;;;14.70;;
41677;SDS011;27364;49.026;8.712;2022-11-20T02:16:05;19.40;;;14.23;;
41677;SDS011;27364;49.026;8.712;2022-11-20T02:18:52;19.65;;;13.57;;
41677;SDS011;27364;49.026;8.712;2022-11-20T02:24:01;18.13;;;13.82;;
41677;SDS011;27364;49.026;8.712;2022-11-20T02:26:43;20.45;;;14.13;;
41677;SDS011;27364;49.026;8.712;2022-11-20T02:29:17;16.52;;;13.30;;
41677;SDS011;27364;49.026;8.712;2022-11-20T02:31:49;19.48;;;13.65;;
41677;SDS011;27364;49.026;8.712;2022-11-20T02:34:16;19.10;;;12.57;;
41677;SDS011;27364;49.026;8.712;2022-11-20T02:36:41;18.17;;;12.85;;
41677;SDS011;27364;49.026;8.712;2022-11-20T02:39:08;15.05;;;11.60;;
41677;SDS011;27364;49.026;8.712;2022-11-20T02:41:37;13.95;;;10.88;;
41677;SDS011;27364;49.026;8.712;2022-11-20T02:44:03;16.77;;;11.85;;
41677;SDS011;27364;49.026;8.712;2022-11-20T02:46:29;14.65;;;11.07;;
41677;SDS011;27364;49.026;8.712;2022-11-20T02:48:56;13.88;;;11.07;;
41677;SDS011;27364;49.026;8.712;2022-11-20T02:51:22;15.25;;;10.75;;
41677;SDS011;27364;49.026;8.712;2022-11-20T02:53:48;14.38;;;10.38;;
41677;SDS011;27364;49.026;8.712;2022-11-20T02:56:13;13.40;;;10.32;;
41677;SDS011;27364;49.026;8.712;2022-11-20T02:58:39;14.15;;;10.77;;
41677;SDS011;27364;49.026;8.712;2022-11-20T03:01:04;14.98;;;10.05;;
41677;SDS011;27364;49.026;8.712;2022-11-20T03:03:30;12.07;;;9.10;;
41677;SDS011;27364;49.026;8.712;2022-11-20T03:05:58;13.77;;;9.20;;
41677;SDS011;27364;49.026;8.712;2022-11-20T03:08:24;13.27;;;9.25;;
41677;SDS011;27364;49.026;8.712;2022-11-20T03:10:50;13.15;;;9.85;;
41677;SDS011;27364;49.026;8.712;2022-11-20T03:13:15;13.95;;;9.52;;
41677;SDS011;27364;49.026;8.712;2022-11-20T03:15:41;12.00;;;9.05;;
41677;SDS011;27364;49.026;8.712;2022-11-20T03:18:06;12.30;;;8.55;;
41677;SDS011;27364;49.026;8.712;2022-11-20T03:20:32;13.38;;;8.93;;
41677;SDS011;27364;49.026;8.712;2022-11-20T03:22:59;12.60;;;8.35;;
41677;SDS011;27364;49.026;8.712;2022-11-20T03:25:25;14.43;;;8.82;;
41677;SDS011;27364;49.026;8.712;2022-11-20T03:27:50;12.52;;;8.25;;
41677;SDS011;27364;49.026;8.712;2022-11-20T03:30:16;14.40;;;8.45;;
41677;SDS011;27364;49.026;8.712;2022-11-20T03:32:41;12.25;;;8.70;;
41677;SDS011;27364;49.026;8.712;2022-11-20T03:35:07;11.35;;;7.97;;
41677;SDS011;27364;49.026;8.712;2022-11-20T03:37:33;10.52;;;8.15;;
41677;SDS011;27364;49.026;8.712;2022-11-20T03:39:58;10.27;;;7.53;;
41677;SDS011;27364;49.026;8.712;2022-11-20T03:42:24;10.98;;;7.72;;
41677;SDS011;27364;49.026;8.712;2022-11-20T03:45:08;12.23;;;7.85;;
41677;SDS011;27364;49.026;8.712;2022-11-20T03:47:33;10.65;;;7.28;;
41677;SDS011;27364;49.026;8.712;2022-11-20T03:49:59;13.35;;;7.88;;
41677;SDS011;27364;49.026;8.712;2022-11-20T03:52:24;9.30;;;6.97;;
41677;SDS011;27364;49.026;8.712;2022-11-20T03:54:50;10.73;;;7.05;;
41677;SDS011;27364;49.026;8.712;2022-11-20T03:57:15;11.07;;;7.00;;
41677;SDS011;27364;49.026;8.712;2022-11-20T03:59:41;10.63;;;7.43;;
41677;SDS011;27364;49.026;8.712;2022-11-20T04:02:06;9.70;;;7.00;;
41677;SDS011;27364;49.026;8.712;2022-11-20T04:04:32;9.73;;;6.68;;
41677;SDS011;27364;49.026;8.712;2022-11-20T04:06:57;9.93;;;6.35;;
41677;SDS011;27364;49.026;8.712;2022-11-20T04:09:23;9.95;;;6.68;;
41677;SDS011;27364;49.026;8.712;2022-11-20T04:11:48;8.10;;;6.10;;
41677;SDS011;27364;49.026;8.712;2022-11-20T04:14:14;9.60;;;6.60;;
41677;SDS011;27364;49.026;8.712;2022-11-20T04:16:40;9.70;;;6.03;;
41677;SDS011;27364;49.026;8.712;2022-11-20T04:19:09;8.70;;;6.15;;
41677;SDS011;27364;49.026;8.712;2022-11-20T04:21:36;7.47;;;5.65;;
41677;SDS011;27364;49.026;8.712;2022-11-20T04:24:02;9.38;;;6.30;;
41677;SDS011;27364;49.026;8.712;2022-11-20T04:26:28;7.63;;;5.72;;
41677;SDS011;27364;49.026;8.712;2022-11-20T04:28:55;7.35;;;5.63;;
41677;SDS011;27364;49.026;8.712;2022-11-20T04:31:24;8.90;;;6.28;;
41677;SDS011;27364;49.026;8.712;2022-11-20T04:33:52;8.85;;;5.50;;
41677;SDS011;27364;49.026;8.712;2022-11-20T04:36:19;8.40;;;5.70;;
41677;SDS011;27364;49.026;8.712;2022-11-20T04:38:53;7.68;;;5.10;;
41677;SDS011;27364;49.026;8.712;2022-11-20T04:41:23;9.75;;;5.88;;
41677;SDS011;27364;49.026;8.712;2022-11-20T04:43:54;6.95;;;5.72;;
41677;SDS011;27364;49.026;8.712;2022-11-20T04:46:34;8.57;;;5.45;;
41677;SDS011;27364;49.026;8.712;2022-11-20T04:49:01;8.65;;;5.95;;
41677;SDS011;27364;49.026;8.712;2022-11-20T04:51:28;8.43;;;5.35;;
41677;SDS011;27364;49.026;8.712;2022-11-20T04:54:06;8.32;;;5.45;;
41677;SDS011;27364;49.026;8.712;2022-11-20T04:56:58;9.23;;;5.60;;
41677;SDS011;27364;49.026;8.712;2022-11-20T04:59:26;7.93;;;5.00;;
41677;SDS011;27364;49.026;8.712;2022-11-20T05:02:36;8.05;;;4.88;;
41677;SDS011;27364;49.026;8.712;2022-11-20T05:05:02;5.75;;;4.60;;
41677;SDS011;27364;49.026;8.712;2022-11-20T05:07:30;9.65;;;5.43;;
41677;SDS011;27364;49.026;8.712;2022-11-20T05:09:59;7.20;;;4.82;;
41677;SDS011;27364;49.026;8.712;2022-11-20T05:12:43;7.15;;;4.75;;
41677;SDS011;27364;49.026;8.712;2022-11-20T05:15:33;7.68;;;4.68;;
41677;SDS011;27364;49.026;8.712;2022-11-20T05:17:59;8.85;;;4.78;;
41677;SDS011;27364;49.026;8.712;2022-11-20T05:20:25;8.13;;;4.88;;
41677;SDS011;27364;49.026;8.712;2022-11-20T05:22:57;7.05;;;4.50;;
41677;SDS011;27364;49.026;8.712;2022-11-20T05:25:25;7.30;;;4.65;;
41677;SDS011;27364;49.026;8.712;2022-11-20T05:27:56;7.00;;;4.28;;
41677;SDS011;27364;49.026;8.712;2022-11-20T05:30:22;5.82;;;3.85;;
41677;SDS011;27364;49.026;8.712;2022-11-20T05:32:51;5.07;;;4.00;;
41677;SDS011;27364;49.026;8.712;2022-11-20T05:35:19;5.28;;;3.38;;
41677;SDS011;27364;49.026;8.712;2022-11-20T05:37:59;7.45;;;3.92;;
41677;SDS011;27364;49.026;8.712;2022-11-20T05:40:26;5.63;;;3.70;;
41677;SDS011;27364;49.026;8.712;2022-11-20T05:42:53;6.05;;;3.60;;
41677;SDS011;27364;49.026;8.712;2022-11-20T05:45:19;6.30;;;3.60;;
41677;SDS011;27364;49.026;8.712;2022-11-20T05:47:44;5.07;;;3.50;;
41677;SDS011;27364;49.026;8.712;2022-11-20T05:50:10;4.05;;;3.33;;
41677;SDS011;27364;49.026;8.712;2022-11-20T05:52:35;6.78;;;3.53;;
41677;SDS011;27364;49.026;8.712;2022-11-20T05:55:01;5.63;;;3.00;;
41677;SDS011;27364;49.026;8.712;2022-11-20T05:57:26;5.75;;;3.45;;
41677;SDS011;27364;49.026;8.712;2022-11-20T05:59:52;7.25;;;3.15;;
41677;SDS011;27364;49.026;8.712;2022-11-20T06:02:17;5.15;;;2.97;;
41677;SDS011;27364;49.026;8.712;2022-11-20T06:04:43;5.53;;;3.08;;
41677;SDS011;27364;49.026;8.712;2022-11-20T06:07:09;6.65;;;3.17;;
41677;SDS011;27364;49.026;8.712;2022-11-20T06:09:34;4.05;;;2.75;;
41677;SDS011;27364;49.026;8.712;2022-11-20T06:12:00;5.53;;;3.20;;
41677;SDS011;27364;49.026;8.712;2022-11-20T06:14:25;3.53;;;2.42;;
41677;SDS011;27364;49.026;8.712;2022-11-20T06:16:51;4.07;;;2.60;;
41677;SDS011;27364;49.026;8.712;2022-11-20T06:19:16;4.18;;;2.72;;
41677;SDS011;27364;49.026;8.712;2022-11-20T06:21:42;6.05;;;2.85;;
41677;SDS011;27364;49.026;8.712;2022-11-20T06:24:11;5.78;;;2.90;;
41677;SDS011;27364;49.026;8.712;2022-11-20T06:26:36;3.90;;;2.70;;
41677;SDS011;27364;49.026;8.712;2022-11-20T06:29:02;5.38;;;3.03;;
41677;SDS011;27364;49.026;8.712;2022-11-20T06:31:27;5.72;;;3.50;;
41677;SDS011;27364;49.026;8.712;2022-11-20T06:33:53;3.92;;;2.50;;
41677;SDS011;27364;49.026;8.712;2022-11-20T06:36:20;4.70;;;2.47;;
41677;SDS011;27364;49.026;8.712;2022-11-20T06:38:47;3.83;;;2.40;;
41677;SDS011;27364;49.026;8.712;2022-11-20T06:41:15;4.72;;;2.42;;
41677;SDS011;27364;49.026;8.712;2022-11-20T06:43:43;4.60;;;2.42;;
41677;SDS011;27364;49.026;8.712;2022-11-20T06:46:09;3.60;;;2.20;;
41677;SDS011;27364;49.026;8.712;2022-11-20T06:48:36;3.63;;;2.35;;
41677;SDS011;27364;49.026;8.712;2022-11-20T06:51:05;4.57;;;2.50;;
41677;SDS011;27364;49.026;8.712;2022-11-20T06:53:31;5.05;;;2.70;;
41677;SDS011;27364;49.026;8.712;2022-11-20T06:55:57;4.43;;;2.50;;
41677;SDS011;27364;49.026;8.712;2022-11-20T06:58:25;5.60;;;2.80;;
41677;SDS011;27364;49.026;8.712;2022-11-20T07:00:52;5.88;;;2.83;;
41677;SDS011;27364;49.026;8.712;2022-11-20T07:03:17;3.63;;;2.40;;
41677;SDS011;27364;49.026;8.712;2022-11-20T07:05:43;4.32;;;2.50;;
41677;SDS011;27364;49.026;8.712;2022-11-20T07:08:10;4.18;;;2.63;;
41677;SDS011;27364;49.026;8.712;2022-11-20T07:10:36;6.60;;;2.60;;
41677;SDS011;27364;49.026;8.712;2022-11-20T07:13:01;4.78;;;2.40;;
41677;SDS011;27364;49.026;8.712;2022-11-20T07:15:27;4.90;;;2.92;;
41677;SDS011;27364;49.026;8.712;2022-11-20T07:17:52;3.67;;;2.30;;
41677;SDS011;27364;49.026;8.712;2022-11-20T07:20:18;4.10;;;2.20;;
41677;SDS011;27364;49.026;8.712;2022-11-20T07:22:44;4.90;;;2.17;;
41677;SDS011;27364;49.026;8.712;2022-11-20T07:25:10;3.72;;;2.03;;
41677;SDS011;27364;49.026;8.712;2022-11-20T07:27:36;3.63;;;2.15;;
41677;SDS011;27364;49.026;8.712;2022-11-20T07:30:04;3.72;;;1.92;;
41677;SDS011;27364;49.026;8.712;2022-11-20T07:32:30;4.47;;;2.28;;
41677;SDS011;27364;49.026;8.712;2022-11-20T07:34:56;4.65;;;2.38;;
41677;SDS011;27364;49.026;8.712;2022-11-20T07:37:21;3.33;;;2.10;;
41677;SDS011;27364;49.026;8.712;2022-11-20T07:39:47;4.05;;;2.20;;
41677;SDS011;27364;49.026;8.712;2022-11-20T07:42:12;4.18;;;2.05;;
41677;SDS011;27364;49.026;8.712;2022-11-20T07:44:38;4.10;;;2.25;;
41677;SDS011;27364;49.026;8.712;2022-11-20T07:47:04;4.03;;;1.90;;
41677;SDS011;27364;49.026;8.712;2022-11-20T07:49:30;7.45;;;2.50;;
41677;SDS011;27364;49.026;8.712;2022-11-20T07:51:55;3.53;;;1.95;;
41677;SDS011;27364;49.026;8.712;2022-11-20T07:54:21;4.80;;;2.00;;
41677;SDS011;27364;49.026;8.712;2022-11-20T07:56:47;4.10;;;2.10;;
41677;SDS011;27364;49.026;8.712;2022-11-20T07:59:13;4.35;;;2.30;;
41677;SDS011;27364;49.026;8.712;2022-11-20T08:01:39;8.75;;;2.35;;
41677;SDS011;27364;49.026;8.712;2022-11-20T08:04:05;3.80;;;2.10;;
41677;SDS011;27364;49.026;8.712;2022-11-20T08:06:31;4.43;;;2.33;;
41677;SDS011;27364;49.026;8.712;2022-11-20T08:08:57;5.25;;;2.42;;
41677;SDS011;27364;49.026;8.712;2022-11-20T08:11:22;4.72;;;2.58;;
41677;SDS011;27364;49.026;8.712;2022-11-20T08:14:06;3.45;;;2.40;;
41677;SDS011;27364;49.026;8.712;2022-11-20T08:16:45;5.55;;;2.50;;
41677;SDS011;27364;49.026;8.712;2022-11-20T08:19:12;5.03;;;2.80;;
41677;SDS011;27364;49.026;8.712;2022-11-20T08:21:39;6.20;;;3.47;;
41677;SDS011;27364;49.026;8.712;2022-11-20T08:24:05;6.00;;;3.35;;
41677;SDS011;27364;49.026;8.712;2022-11-20T08:26:31;4.15;;;2.75;;
41677;SDS011;27364;49.026;8.712;2022-11-20T08:28:57;4.15;;;2.90;;
41677;SDS011;27364;49.026;8.712;2022-11-20T08:31:24;7.85;;;2.83;;
41677;SDS011;27364;49.026;8.712;2022-11-20T08:33:51;4.80;;;3.00;;
41677;SDS011;27364;49.026;8.712;2022-11-20T08:36:17;3.95;;;2.90;;
41677;SDS011;27364;49.026;8.712;2022-11-20T08:38:50;5.10;;;3.00;;
41677;SDS011;27364;49.026;8.712;2022-11-20T08:41:17;4.43;;;2.97;;
41677;SDS011;27364;49.026;8.712;2022-11-20T08:44:09;5.35;;;3.10;;
41677;SDS011;27364;49.026;8.712;2022-11-20T08:46:37;5.57;;;3.15;;
41677;SDS011;27364;49.026;8.712;2022-11-20T08:49:06;5.63;;;3.47;;
41677;SDS011;27364;49.026;8.712;2022-11-20T08:51:33;4.90;;;3.60;;
41677;SDS011;27364;49.026;8.712;2022-11-20T08:53:59;4.88;;;3.35;;
41677;SDS011;27364;49.026;8.712;2022-11-20T08:56:25;5.68;;;3.28;;
41677;SDS011;27364;49.026;8.712;2022-11-20T08:58:50;5.65;;;3.75;;
41677;SDS011;27364;49.026;8.712;2022-11-20T09:01:17;7.82;;;3.80;;
41677;SDS011;27364;49.026;8.712;2022-11-20T09:03:43;5.45;;;3.80;;
41677;SDS011;27364;49.026;8.712;2022-11-20T09:06:09;5.72;;;4.10;;
41677;SDS011;27364;49.026;8.712;2022-11-20T09:08:35;5.53;;;3.70;;
41677;SDS011;27364;49.026;8.712;2022-11-20T09:11:01;6.88;;;4.03;;
41677;SDS011;27364;49.026;8.712;2022-11-20T09:13:28;6.65;;;4.43;;
41677;SDS011;27364;49.026;8.712;2022-11-20T09:15:55;5.68;;;4.35;;
41677;SDS011;27364;49.026;8.712;2022-11-20T09:18:21;9.87;;;7.37;;
41677;SDS011;27364;49.026;8.712;2022-11-20T09:20:47;8.15;;;5.32;;
41677;SDS011;27364;49.026;8.712;2022-11-20T09:23:14;8.52;;;5.40;;
41677;SDS011;27364;49.026;8.712;2022-11-20T09:25:39;5.85;;;4.72;;
41677;SDS011;27364;49.026;8.712;2022-11-20T09:28:05;8.48;;;5.45;;
41677;SDS011;27364;49.026;8.712;2022-11-20T09:30:31;7.43;;;5.20;;
41677;SDS011;27364;49.026;8.712;2022-11-20T09:32:58;9.05;;;6.10;;
41677;SDS011;27364;49.026;8.712;2022-11-20T09:35:23;9.02;;;5.95;;
41677;SDS011;27364;49.026;8.712;2022-11-20T09:37:49;7.47;;;5.43;;
41677;SDS011;27364;49.026;8.712;2022-11-20T09:40:25;11.05;;;5.35;;
41677;SDS011;27364;49.026;8.712;2022-11-20T09:53:55;7.32;;;4.70;;
41677;SDS011;27364;49.026;8.712;2022-11-20T09:56:48;5.75;;;4.45;;
41677;SDS011;27364;49.026;8.712;2022-11-20T10:08:10;5.95;;;3.90;;
41677;SDS011;27364;49.026;8.712;2022-11-20T10:10:46;5.25;;;3.83;;
41677;SDS011;27364;49.026;8.712;2022-11-20T10:22:04;8.07;;;5.32;;
41677;SDS011;27364;49.026;8.712;2022-11-20T10:24:56;7.43;;;5.50;;
41677;SDS011;27364;49.026;8.712;2022-11-20T10:30:08;7.78;;;5.28;;
41677;SDS011;27364;49.026;8.712;2022-11-20T10:32:40;8.95;;;5.22;;
41677;SDS011;27364;49.026;8.712;2022-11-20T10:35:16;10.45;;;5.97;;
41677;SDS011;27364;49.026;8.712;2022-11-20T10:37:49;10.13;;;5.75;;
41677;SDS011;27364;49.026;8.712;2022-11-20T10:40:25;9.05;;;6.05;;
41677;SDS011;27364;49.026;8.712;2022-11-20T10:42:59;11.18;;;6.32;;
41677;SDS011;27364;49.026;8.712;2022-11-20T10:48:23;10.18;;;6.88;;
41677;SDS011;27364;49.026;8.712;2022-11-20T10:53:56;12.82;;;6.95;;
41677;SDS011;27364;49.026;8.712;2022-11-20T10:56:25;9.52;;;6.65;;
41677;SDS011;27364;49.026;8.712;2022-11-20T11:01:40;10.60;;;6.82;;
41677;SDS011;27364;49.026;8.712;2022-11-20T11:04:13;13.20;;;6.82;;
41677;SDS011;27364;49.026;8.712;2022-11-20T11:07:06;9.45;;;6.25;;
41677;SDS011;27364;49.026;8.712;2022-11-20T11:09:41;9.23;;;5.90;;
41677;SDS011;27364;49.026;8.712;2022-11-20T11:12:13;7.50;;;5.78;;
41677;SDS011;27364;49.026;8.712;2022-11-20T11:14:49;9.25;;;4.93;;
41677;SDS011;27364;49.026;8.712;2022-11-20T11:17:20;9.85;;;4.85;;
41677;SDS011;27364;49.026;8.712;2022-11-20T11:22:47;10.00;;;4.97;;
41677;SDS011;27364;49.026;8.712;2022-11-20T11:25:34;8.50;;;4.57;;
41677;SDS011;27364;49.026;8.712;2022-11-20T11:28:02;7.43;;;4.15;;
41677;SDS011;27364;49.026;8.712;2022-11-20T11:30:44;8.95;;;4.30;;
41677;SDS011;27364;49.026;8.712;2022-11-20T11:33:20;7.88;;;4.30;;
41677;SDS011;27364;49.026;8.712;2022-11-20T11:35:48;9.45;;;4.30;;
41677;SDS011;27364;49.026;8.712;2022-11-20T11:38:19;6.82;;;3.97;;
41677;SDS011;27364;49.026;8.712;2022-11-20T11:40:53;11.77;;;3.90;;
41677;SDS011;27364;49.026;8.712;2022-11-20T11:43:39;10.80;;;3.70;;
41677;SDS011;27364;49.026;8.712;2022-11-20T11:46:33;10.23;;;4.00;;
41677;SDS011;27364;49.026;8.712;2022-11-20T11:49:13;10.77;;;4.15;;
41677;SDS011;27364;49.026;8.712;2022-11-20T11:52:02;8.40;;;3.75;;
41677;SDS011;27364;49.026;8.712;2022-11-20T11:54:34;7.85;;;3.47;;
41677;SDS011;27364;49.026;8.712;2022-11-20T12:00:13;8.05;;;3.58;;
41677;SDS011;27364;49.026;8.712;2022-11-20T12:05:20;8.15;;;3.50;;
41677;SDS011;27364;49.026;8.712;2022-11-20T12:08:19;6.35;;;2.90;;
41677;SDS011;27364;49.026;8.712;2022-11-20T12:16:30;6.50;;;3.42;;
41677;SDS011;27364;49.026;8.712;2022-11-20T12:19:01;6.40;;;3.80;;
41677;SDS011;27364;49.026;8.712;2022-11-20T12:29:43;5.88;;;2.55;;
41677;SDS011;27364;49.026;8.712;2022-11-20T12:32:31;8.00;;;2.97;;
41677;SDS011;27364;49.026;8.712;2022-11-20T12:41:09;6.70;;;2.67;;
41677;SDS011;27364;49.026;8.712;2022-11-20T12:47:19;7.75;;;2.70;;
41677;SDS011;27364;49.026;8.712;2022-11-20T12:53:30;9.27;;;2.85;;
41677;SDS011;27364;49.026;8.712;2022-11-20T13:01:37;7.65;;;2.67;;
41677;SDS011;27364;49.026;8.712;2022-11-20T13:07:03;6.38;;;2.50;;
41677;SDS011;27364;49.026;8.712;2022-11-20T13:09:42;5.47;;;2.03;;
41677;SDS011;27364;49.026;8.712;2022-11-20T13:14:43;5.15;;;2.10;;
41677;SDS011;27364;49.026;8.712;2022-11-20T13:17:18;4.65;;;1.90;;
41677;SDS011;27364;49.026;8.712;2022-11-20T13:19:50;5.18;;;2.05;;
41677;SDS011;27364;49.026;8.712;2022-11-20T13:22:28;5.68;;;1.75;;
41677;SDS011;27364;49.026;8.712;2022-11-20T13:25:10;4.95;;;1.77;;
41677;SDS011;27364;49.026;8.712;2022-11-20T13:27:47;9.07;;;1.92;;
41677;SDS011;27364;49.026;8.712;2022-11-20T13:30:14;4.25;;;1.60;;
41677;SDS011;27364;49.026;8.712;2022-11-20T13:32:56;5.43;;;1.80;;
41677;SDS011;27364;49.026;8.712;2022-11-20T13:35:32;6.03;;;2.03;;
41677;SDS011;27364;49.026;8.712;2022-11-20T13:38:00;5.45;;;1.67;;
41677;SDS011;27364;49.026;8.712;2022-11-20T13:40:26;7.93;;;2.00;;
41677;SDS011;27364;49.026;8.712;2022-11-20T13:42:56;5.05;;;1.65;;
41677;SDS011;27364;49.026;8.712;2022-11-20T13:45:39;7.93;;;2.03;;
41677;SDS011;27364;49.026;8.712;2022-11-20T13:48:15;4.70;;;1.60;;
41677;SDS011;27364;49.026;8.712;2022-11-20T13:51:49;5.15;;;1.52;;
41677;SDS011;27364;49.026;8.712;2022-11-20T13:59:36;5.75;;;1.77;;
41677;SDS011;27364;49.026;8.712;2022-11-20T14:02:05;7.13;;;1.85;;
41677;SDS011;27364;49.026;8.712;2022-11-20T14:04:38;8.07;;;2.00;;
41677;SDS011;27364;49.026;8.712;2022-11-20T14:07:12;5.47;;;2.05;;
41677;SDS011;27364;49.026;8.712;2022-11-20T14:09:37;6.88;;;1.88;;
41677;SDS011;27364;49.026;8.712;2022-11-20T14:12:03;10.02;;;1.73;;
41677;SDS011;27364;49.026;8.712;2022-11-20T14:14:46;4.68;;;1.88;;
41677;SDS011;27364;49.026;8.712;2022-11-20T14:19:53;4.60;;;1.50;;
41677;SDS011;27364;49.026;8.712;2022-11-20T14:22:21;3.58;;;1.70;;
41677;SDS011;27364;49.026;8.712;2022-11-20T14:25:00;4.30;;;1.70;;
41677;SDS011;27364;49.026;8.712;2022-11-20T14:27:42;3.58;;;1.58;;
41677;SDS011;27364;49.026;8.712;2022-11-20T14:30:15;5.80;;;2.00;;
41677;SDS011;27364;49.026;8.712;2022-11-20T14:32:46;5.60;;;1.70;;
41677;SDS011;27364;49.026;8.712;2022-11-20T14:35:18;6.43;;;1.57;;
41677;SDS011;27364;49.026;8.712;2022-11-20T14:37:45;5.93;;;2.05;;
41677;SDS011;27364;49.026;8.712;2022-11-20T14:40:30;3.78;;;1.52;;
41677;SDS011;27364;49.026;8.712;2022-11-20T14:42:58;4.72;;;2.00;;
41677;SDS011;27364;49.026;8.712;2022-11-20T14:45:24;4.38;;;1.90;;
41677;SDS011;27364;49.026;8.712;2022-11-20T14:47:52;6.10;;;1.70;;
41677;SDS011;27364;49.026;8.712;2022-11-20T14:50:29;3.92;;;2.00;;
41677;SDS011;27364;49.026;8.712;2022-11-20T14:52:56;5.20;;;1.95;;
41677;SDS011;27364;49.026;8.712;2022-11-20T14:55:33;6.68;;;1.83;;
41677;SDS011;27364;49.026;8.712;2022-11-20T14:58:19;3.92;;;1.90;;
41677;SDS011;27364;49.026;8.712;2022-11-20T15:01:05;5.43;;;1.90;;
41677;SDS011;27364;49.026;8.712;2022-11-20T15:03:39;6.00;;;1.80;;
41677;SDS011;27364;49.026;8.712;2022-11-20T15:06:06;4.72;;;2.20;;
41677;SDS011;27364;49.026;8.712;2022-11-20T15:08:35;5.47;;;1.85;;
41677;SDS011;27364;49.026;8.712;2022-11-20T15:11:01;4.07;;;1.70;;
41677;SDS011;27364;49.026;8.712;2022-11-20T15:13:36;5.35;;;2.03;;
41677;SDS011;27364;49.026;8.712;2022-11-20T15:16:04;4.68;;;1.80;;
41677;SDS011;27364;49.026;8.712;2022-11-20T15:18:39;6.85;;;3.25;;
41677;SDS011;27364;49.026;8.712;2022-11-20T15:21:12;15.80;;;8.60;;
41677;SDS011;27364;49.026;8.712;2022-11-20T15:23:39;5.80;;;2.30;;
41677;SDS011;27364;49.026;8.712;2022-11-20T15:26:05;14.52;;;8.93;;
41677;SDS011;27364;49.026;8.712;2022-11-20T15:28:44;4.07;;;1.90;;
41677;SDS011;27364;49.026;8.712;2022-11-20T15:31:13;7.55;;;2.55;;
41677;SDS011;27364;49.026;8.712;2022-11-20T15:33:40;5.57;;;2.40;;
41677;SDS011;27364;49.026;8.712;2022-11-20T15:36:06;6.50;;;1.73;;
41677;SDS011;27364;49.026;8.712;2022-11-20T15:38:31;7.18;;;2.50;;
41677;SDS011;27364;49.026;8.712;2022-11-20T15:40:57;5.70;;;1.98;;
41677;SDS011;27364;49.026;8.712;2022-11-20T15:43:22;70.20;;;25.70;;
41677;SDS011;27364;49.026;8.712;2022-11-20T15:45:53;31.00;;;14.32;;
41677;SDS011;27364;49.026;8.712;2022-11-20T15:48:21;6.65;;;2.75;;
41677;SDS011;27364;49.026;8.712;2022-11-20T15:50:52;4.88;;;2.58;;
41677;SDS011;27364;49.026;8.712;2022-11-20T15:53:22;4.53;;;1.80;;
41677;SDS011;27364;49.026;8.712;2022-11-20T15:55:48;9.73;;;2.50;;
41677;SDS011;27364;49.026;8.712;2022-11-20T15:58:14;7.90;;;3.30;;
41677;SDS011;27364;49.026;8.712;2022-11-20T16:00:41;4.27;;;2.00;;
41677;SDS011;27364;49.026;8.712;2022-11-20T16:03:11;4.20;;;1.75;;
41677;SDS011;27364;49.026;8.712;2022-11-20T16:05:37;4.97;;;2.10;;
41677;SDS011;27364;49.026;8.712;2022-11-20T16:08:03;4.47;;;2.00;;
41677;SDS011;27364;49.026;8.712;2022-11-20T16:10:29;3.67;;;1.60;;
41677;SDS011;27364;49.026;8.712;2022-11-20T16:12:54;6.00;;;2.00;;
41677;SDS011;27364;49.026;8.712;2022-11-20T16:15:38;4.55;;;1.75;;
41677;SDS011;27364;49.026;8.712;2022-11-20T16:18:10;9.82;;;5.00;;
41677;SDS011;27364;49.026;8.712;2022-11-20T16:20:37;5.40;;;1.80;;
41677;SDS011;27364;49.026;8.712;2022-11-20T16:23:04;3.58;;;2.03;;
41677;SDS011;27364;49.026;8.712;2022-11-20T16:25:31;4.03;;;2.13;;
41677;SDS011;27364;49.026;8.712;2022-11-20T16:27:56;3.72;;;1.90;;
41677;SDS011;27364;49.026;8.712;2022-11-20T16:30:22;5.28;;;2.25;;
41677;SDS011;27364;49.026;8.712;2022-11-20T16:32:47;5.13;;;2.03;;
41677;SDS011;27364;49.026;8.712;2022-11-20T16:35:13;5.18;;;1.90;;
41677;SDS011;27364;49.026;8.712;2022-11-20T16:37:39;4.45;;;1.73;;
41677;SDS011;27364;49.026;8.712;2022-11-20T16:40:05;4.47;;;1.67;;
41677;SDS011;27364;49.026;8.712;2022-11-20T16:42:34;4.22;;;1.95;;